Terminal Aerodrome Forecast
Issued by NWS

Home | Current Version | Previous Version | Graphics & Text | Print | Product List | Glossary On
Versions: 1 2 3 4 5 6 7 8 9 10 11 12 13
000
FTUS43 KGRB 170520
TAFAUW
TAF
KAUW 170520Z 1706/1806 27006KT P6SM SCT200
     FM170900 26007KT P6SM SCT200 WS016/27035KT
     FM171500 25011G20KT P6SM SKC WS020/28050KT=

USA.gov is the U.S. government's official web portal to all federal, state and local government web resources and services.